Time;durP1;ratioP1;P1;durP2;ratioP2;P2;SDS_P1;SDS_P2;PMS_P1;PMS_P2;Temp;Humidity;BMP_temperature;BMP_pressure;BME280_temperature;BME280_humidity;BME280_pressure;Samples;Min_cycle;Max_cycle;Signal;HPM_P1;HPM_P2
2023/12/11 00:01:01;;;;;;;37.25;6.88;;;;;;;9.07;100.00;99866.09;6084654;19;20018;-74
2023/12/11 00:03:06;;;;;;;47.15;6.47;;;;;;;9.06;100.00;99864.41;6081509;19;20023;-75
2023/12/11 00:05:12;;;;;;;34.72;6.30;;;;;;;9.15;100.00;99870.97;6081688;19;20059;-73
2023/12/11 00:07:21;;;;;;;32.42;6.75;;;;;;;9.30;100.00;99864.97;6076973;19;20050;-73
2023/12/11 00:09:26;;;;;;;39.28;6.78;;;;;;;9.31;100.00;99857.94;6082269;19;20056;-74
2023/12/11 00:11:31;;;;;;;19.58;4.47;;;;;;;9.30;100.00;99861.50;6083650;19;20010;-74
2023/12/11 00:13:36;;;;;;;55.03;7.88;;;;;;;9.33;100.00;99863.94;6084228;19;20019;-74
2023/12/11 00:15:41;;;;;;;44.47;7.82;;;;;;;9.32;100.00;99854.38;6084243;19;20002;-74
2023/12/11 00:17:46;;;;;;;42.10;7.30;;;;;;;9.32;100.00;99852.63;6084034;19;20010;-74
2023/12/11 00:19:51;;;;;;;23.27;5.35;;;;;;;9.38;100.00;99848.84;6085441;19;20377;-75
2023/12/11 00:21:58;;;;;;;26.70;6.43;;;;;;;9.42;100.00;99852.97;6082380;19;20010;-74
2023/12/11 00:24:09;;;;;;;25.75;5.38;;;;;;;9.44;100.00;99849.34;6083088;19;20295;-74
2023/12/11 00:26:14;;;;;;;33.30;5.43;;;;;;;9.43;100.00;99846.81;6085222;19;20014;-74
2023/12/11 00:28:19;;;;;;;30.08;5.70;;;;;;;9.55;100.00;99845.31;6081213;19;20022;-72
2023/12/11 00:30:25;;;;;;;34.83;6.40;;;;;;;9.57;100.00;99839.06;6081659;19;20010;-71
2023/12/11 00:32:30;;;;;;;31.48;6.03;;;;;;;9.62;100.00;99846.72;6081687;19;20032;-71
2023/12/11 00:34:35;;;;;;;26.58;5.72;;;;;;;9.64;100.00;99842.25;6081274;19;20047;-71
2023/12/11 00:36:38;;;;;;;29.42;5.55;;;;;;;9.59;100.00;99839.84;6075993;19;20014;-74
2023/12/11 00:38:45;;;;;;;;;;;;;;;9.60;100.00;99836.28;6082486;19;20005;-73
2023/12/11 00:40:53;;;;;;;37.20;5.95;;;;;;;9.59;100.00;99842.47;6077799;19;19914;-73
2023/12/11 00:42:58;;;;;;;32.60;6.20;;;;;;;9.61;100.00;99830.13;6082477;19;20389;-73
2023/12/11 00:45:03;;;;;;;43.08;7.78;;;;;;;9.61;100.00;99835.38;6081087;19;20594;-73
2023/12/11 00:47:08;;;;;;;27.42;5.30;;;;;;;9.67;100.00;99827.19;6084491;19;20039;-75
2023/12/11 00:49:13;;;;;;;32.10;6.97;;;;;;;9.67;100.00;99835.03;6083873;19;20032;-74
2023/12/11 00:51:19;;;;;;;16.95;6.03;;;;;;;9.72;100.00;99826.09;6080616;19;19999;-73
2023/12/11 00:53:26;;;;;;;36.25;6.55;;;;;;;9.73;100.00;99835.66;6078499;19;20439;-73
2023/12/11 00:55:30;;;;;;;38.10;7.32;;;;;;;9.68;100.00;99823.59;6082519;19;20078;-73
2023/12/11 00:57:38;;;;;;;23.27;4.68;;;;;;;9.73;100.00;99827.78;6083376;19;20011;-74
2023/12/11 00:59:46;;;;;;;35.90;6.10;;;;;;;9.77;100.00;99818.81;6078211;19;20035;-74
2023/12/11 01:01:52;;;;;;;27.60;5.15;;;;;;;9.78;100.00;99812.63;6079853;19;20784;-71
2023/12/11 01:04:00;;;;;;;28.17;4.85;;;;;;;9.78;100.00;99815.25;6077371;19;20053;-71
2023/12/11 01:06:10;;;;;;;46.58;7.85;;;;;;;9.82;100.00;99807.16;6087484;19;20310;-72
2023/12/11 01:08:19;;;;;;;23.67;5.90;;;;;;;9.82;100.00;99814.16;6084756;19;20805;-71
2023/12/11 01:10:25;;;;;;;25.58;5.43;;;;;;;9.85;100.00;99811.38;6085787;19;20007;-71
2023/12/11 01:12:30;;;;;;;30.00;6.95;;;;;;;9.85;100.00;99811.38;6087949;19;20023;-72
2023/12/11 01:14:38;;;;;;;34.95;6.30;;;;;;;9.82;100.00;99808.91;6086469;19;20041;-70
2023/12/11 01:16:44;;;;;;;40.67;7.15;;;;;;;9.73;100.00;99802.38;6085486;19;20472;-71
2023/12/11 01:18:50;;;;;;;31.55;5.50;;;;;;;9.73;100.00;99801.53;6087859;19;20107;-70
2023/12/11 01:20:53;;;;;;;33.70;5.97;;;;;;;9.73;100.00;99801.53;6086658;19;20006;-71
2023/12/11 01:23:00;;;;;;;28.17;5.47;;;;;;;9.75;100.00;99786.56;6086842;19;20613;-72
2023/12/11 01:25:08;;;;;;;41.55;5.57;;;;;;;9.80;100.00;99792.41;6085628;19;20524;-74
2023/12/11 01:27:17;;;;;;;30.45;5.30;;;;;;;9.80;100.00;99776.69;6087441;19;20070;-75
2023/12/11 01:29:21;;;;;;;28.02;6.32;;;;;;;9.78;100.00;99789.03;6086627;19;20115;-73
2023/12/11 01:31:29;;;;;;;29.85;5.78;;;;;;;9.82;100.00;99782.66;6084103;19;20474;-73
2023/12/11 01:33:34;;;;;;;29.15;6.20;;;;;;;9.81;100.00;99766.09;6083769;19;20017;-74
2023/12/11 01:35:47;;;;;;;23.55;6.22;;;;;;;9.80;100.00;99784.56;6089837;19;20014;-70
2023/12/11 01:37:52;;;;;;;30.83;6.00;;;;;;;9.84;100.00;99778.19;6086829;19;20594;-71
2023/12/11 01:39:55;;;;;;;25.48;5.35;;;;;;;9.84;100.00;99801.81;6081474;19;20010;-71
2023/12/11 01:42:03;;;;;;;36.45;6.45;;;;;;;9.82;100.00;99774.78;6085579;19;20007;-71
2023/12/11 01:44:08;;;;;;;28.80;4.82;;;;;;;9.72;100.00;99773.63;6088552;19;20526;-72
2023/12/11 01:46:18;;;;;;;19.95;5.57;;;;;;;9.61;100.00;99767.19;6086973;19;20015;-72
2023/12/11 01:48:25;;;;;;;30.65;8.13;;;;;;;9.63;100.00;99764.47;6086295;19;20014;-74
2023/12/11 01:50:31;;;;;;;27.02;6.05;;;;;;;9.60;100.00;99765.47;6086217;19;20005;-75
2023/12/11 01:52:37;;;;;;;34.83;7.05;;;;;;;9.62;100.00;99750.50;6085701;19;20031;-74
2023/12/11 01:54:39;;;;;;;19.40;4.03;;;;;;;9.61;100.00;99764.56;6085918;19;20019;-74
2023/12/11 01:56:45;;;;;;;38.20;5.28;;;;;;;9.62;100.00;99760.16;6084937;19;20737;-74
2023/12/11 01:58:50;;;;;;;29.83;6.07;;;;;;;9.71;100.00;99753.56;6083684;19;20101;-73
2023/12/11 02:00:55;;;;;;;27.42;5.05;;;;;;;9.69;100.00;99758.91;6087483;19;20021;-76
2023/12/11 02:03:01;;;;;;;27.33;5.85;;;;;;;9.70;100.00;99744.00;6085822;19;20062;-74
2023/12/11 02:05:09;;;;;;;34.58;5.45;;;;;;;9.72;100.00;99750.03;6087160;19;20364;-74
2023/12/11 02:07:15;;;;;;;25.92;6.03;;;;;;;9.80;100.00;99753.06;6086622;19;20479;-74
2023/12/11 02:09:20;;;;;;;34.95;6.60;;;;;;;9.80;100.00;99755.69;6084890;19;20003;-75
2023/12/11 02:11:25;;;;;;;28.45;5.03;;;;;;;9.77;100.00;99759.31;6086586;19;20007;-74
2023/12/11 02:13:29;;;;;;;34.15;5.47;;;;;;;9.73;100.00;99743.84;6086044;19;20462;-77
2023/12/11 02:15:44;;;;;;;39.63;7.53;;;;;;;9.69;100.00;99745.78;6082321;19;20078;-73
2023/12/11 02:17:49;;;;;;;22.15;5.13;;;;;;;9.66;100.00;99741.56;6079659;19;20478;-74
2023/12/11 02:19:54;;;;;;;25.52;4.57;;;;;;;9.60;100.00;99738.41;6085627;19;20080;-75
2023/12/11 02:22:01;;;;;;;31.40;4.88;;;;;;;9.58;100.00;99743.72;6085718;19;20421;-74
2023/12/11 02:24:15;;;;;;;33.65;4.97;;;;;;;9.63;100.00;99732.97;6084867;19;20045;-74
2023/12/11 02:26:23;;;;;;;29.05;5.95;;;;;;;9.63;100.00;99732.97;6084796;19;20010;-74
2023/12/11 02:28:28;;;;;;;29.77;5.53;;;;;;;9.62;100.00;99732.16;6083417;19;20766;-76
2023/12/11 02:30:37;;;;;;;34.22;6.10;;;;;;;9.61;100.00;99725.22;6085829;19;20222;-74
2023/12/11 02:32:45;;;;;;;37.78;6.80;;;;;;;9.62;100.00;99720.81;6087185;19;20608;-72
2023/12/11 02:34:51;;;;;;;21.45;5.45;;;;;;;9.60;100.00;99727.91;6089254;19;20653;-73
2023/12/11 02:36:56;;;;;;;26.15;5.97;;;;;;;9.56;100.00;99727.25;6087888;19;20416;-75
2023/12/11 02:39:02;;;;;;;26.85;5.65;;;;;;;9.57;100.00;99721.06;6089684;19;20011;-75
2023/12/11 02:41:05;;;;;;;28.48;5.07;;;;;;;9.68;100.00;99720.47;6093270;19;20042;-74
2023/12/11 02:43:13;;;;;;;22.33;5.40;;;;;;;9.71;100.00;99709.78;6088214;19;20031;-74
2023/12/11 02:45:18;;;;;;;26.67;5.47;;;;;;;9.77;100.00;99721.72;6090781;19;20007;-74
2023/12/11 02:47:23;;;;;;;25.27;5.55;;;;;;;9.78;100.00;99716.41;6086526;19;20011;-74
2023/12/11 02:49:28;;;;;;;33.60;5.93;;;;;;;9.82;100.00;99717.06;6089437;19;20006;-76
2023/12/11 02:51:33;;;;;;;31.80;4.10;;;;;;;9.84;100.00;99713.44;6090191;19;20007;-73
2023/12/11 02:53:38;;;;;;;19.75;4.35;;;;;;;9.78;100.00;99710.31;6088933;19;20014;-73
2023/12/11 02:55:43;;;;;;;36.80;5.35;;;;;;;9.79;100.00;99707.59;6091138;19;20467;-73
2023/12/11 02:57:48;;;;;;;42.35;7.60;;;;;;;9.84;100.00;99699.47;6088548;19;20007;-75
2023/12/11 02:59:56;;;;;;;35.03;5.07;;;;;;;9.81;100.00;99705.75;6090311;19;20050;-73
2023/12/11 03:02:01;;;;;;;35.03;5.72;;;;;;;9.87;100.00;99694.06;6087910;19;20019;-74
2023/12/11 03:04:06;;;;;;;30.75;5.95;;;;;;;9.88;100.00;99685.28;6085933;19;20025;-74
2023/12/11 03:06:19;;;;;;;27.05;5.47;;;;;;;9.83;100.00;99692.53;6086853;19;20467;-74
2023/12/11 03:08:24;;;;;;;30.15;5.28;;;;;;;9.84;100.00;99678.47;6085948;19;20090;-74
2023/12/11 03:10:29;;;;;;;32.30;5.22;;;;;;;9.84;100.00;99675.88;6084672;19;20098;-73
2023/12/11 03:12:34;;;;;;;39.75;5.97;;;;;;;9.88;100.00;99691.34;6086252;19;20018;-73
2023/12/11 03:14:39;;;;;;;34.58;7.32;;;;;;;9.85;100.00;99683.66;6084838;19;20014;-74
2023/12/11 03:16:49;;;;;;;27.75;6.07;;;;;;;9.89;100.00;99682.53;6087738;19;20015;-74
2023/12/11 03:18:54;;;;;;;39.88;6.78;;;;;;;9.82;100.00;99672.47;6085217;19;20590;-75
2023/12/11 03:20:59;;;;;;;25.85;4.25;;;;;;;9.74;100.00;99667.69;6084019;19;20018;-74
2023/12/11 03:23:04;;;;;;;21.27;5.13;;;;;;;9.67;100.00;99674.19;6084335;19;20014;-73
2023/12/11 03:25:10;;;;;;;34.00;5.97;;;;;;;9.66;100.00;99661.97;6084498;19;20070;-74
2023/12/11 03:27:15;;;;;;;29.98;4.45;;;;;;;9.62;100.00;99663.94;6083086;19;20018;-73
2023/12/11 03:29:17;;;;;;;30.58;6.18;;;;;;;9.59;100.00;99674.63;6085462;19;20019;-73
2023/12/11 03:31:22;;;;;;;42.38;6.57;;;;;;;9.57;100.00;99652.88;6082848;19;20019;-73
2023/12/11 03:33:29;;;;;;;32.95;5.63;;;;;;;9.55;100.00;99657.34;6085537;19;20101;-75
2023/12/11 03:35:34;;;;;;;35.72;6.68;;;;;;;9.61;100.00;99664.00;6084808;19;20011;-74
2023/12/11 03:37:39;;;;;;;33.15;5.80;;;;;;;9.65;100.00;99650.66;6084082;19;20010;-74
2023/12/11 03:39:44;;;;;;;27.98;5.25;;;;;;;9.68;100.00;99668.84;6081570;19;20062;-73
2023/12/11 03:41:49;;;;;;;34.08;5.70;;;;;;;9.66;100.00;99631.38;6078842;19;20074;-73
2023/12/11 03:43:54;;;;;;;18.58;4.47;;;;;;;9.68;100.00;99666.22;6082740;19;20015;-73
2023/12/11 03:45:57;;;;;;;35.35;5.90;;;;;;;9.70;100.00;99660.06;6084376;19;20018;-72
2023/12/11 03:48:02;;;;;;;28.25;5.43;;;;;;;9.63;100.00;99649.88;6083536;19;20021;-74
2023/12/11 03:50:11;;;;;;;35.30;6.25;;;;;;;9.64;100.00;99656.00;6085153;19;20392;-75
2023/12/11 03:52:14;;;;;;;33.15;5.38;;;;;;;9.57;100.00;99642.38;6081754;19;20030;-75
2023/12/11 03:54:19;;;;;;;32.42;5.20;;;;;;;9.55;100.00;99636.34;6082817;19;20536;-74
2023/12/11 03:56:25;;;;;;;30.67;5.38;;;;;;;9.52;100.00;99639.16;6084210;19;20011;-74
2023/12/11 03:58:30;;;;;;;20.52;4.90;;;;;;;9.52;100.00;99636.53;6080012;19;20474;-74
2023/12/11 04:00:36;;;;;;;24.85;4.60;;;;;;;9.59;100.00;99637.91;6082276;19;20018;-75
2023/12/11 04:02:41;;;;;;;26.98;4.10;;;;;;;9.51;100.00;99640.09;6083840;19;20014;-74
2023/12/11 04:04:46;;;;;;;25.80;4.95;;;;;;;9.43;100.00;99637.06;6085853;19;20022;-74
2023/12/11 04:06:54;;;;;;;27.58;5.47;;;;;;;9.46;100.00;99642.13;6083087;19;20018;-72
2023/12/11 04:08:59;;;;;;;24.67;6.05;;;;;;;9.55;100.00;99636.34;6083469;19;20577;-73
2023/12/11 04:11:04;;;;;;;30.50;6.30;;;;;;;9.58;100.00;99627.47;6084561;19;20010;-74
2023/12/11 04:13:08;;;;;;;34.22;5.93;;;;;;;9.61;100.00;99646.53;6084567;19;20014;-74
2023/12/11 04:15:14;;;;;;;25.27;4.13;;;;;;;9.69;100.00;99627.75;6083226;19;20059;-73
2023/12/11 04:17:21;;;;;;;26.88;4.75;;;;;;;9.67;100.00;99640.94;6076425;19;20011;-75
2023/12/11 04:19:26;;;;;;;22.48;5.22;;;;;;;9.73;100.00;99618.75;6084210;19;20014;-73
2023/12/11 04:21:31;;;;;;;29.33;5.35;;;;;;;9.76;100.00;99631.69;6083424;19;20431;-75
2023/12/11 04:23:38;;;;;;;24.17;3.42;;;;;;;9.81;100.00;99621.78;6083929;19;20011;-74
2023/12/11 04:25:46;;;;;;;34.00;5.38;;;;;;;9.84;100.00;99629.47;6086332;19;20098;-74
2023/12/11 04:27:51;;;;;;;26.35;4.15;;;;;;;9.83;100.00;99622.53;6086646;19;20487;-73
2023/12/11 04:29:56;;;;;;;30.77;4.63;;;;;;;9.83;100.00;99624.34;6084079;19;20025;-74
2023/12/11 04:31:58;;;;;;;18.55;4.57;;;;;;;9.78;100.00;99621.13;6084232;19;20614;-75
2023/12/11 04:34:03;;;;;;;20.27;4.88;;;;;;;9.81;100.00;99615.69;6082192;19;20086;-73
2023/12/11 04:36:12;;;;;;;24.38;4.28;;;;;;;9.75;100.00;99616.88;6084394;19;20554;-76
2023/12/11 04:38:17;;;;;;;26.70;6.13;;;;;;;9.79;100.00;99612.31;6084136;19;20512;-74
2023/12/11 04:40:23;;;;;;;25.55;5.18;;;;;;;9.74;100.00;99615.22;6085846;19;20224;-73
2023/12/11 04:42:28;;;;;;;40.83;4.72;;;;;;;9.77;100.00;99628.16;6087826;19;20014;-72
2023/12/11 04:44:33;;;;;;;19.85;4.95;;;;;;;9.77;100.00;99620.28;6091504;19;20447;-73
2023/12/11 04:46:38;;;;;;;26.55;5.80;;;;;;;9.84;100.00;99607.63;6087445;19;20390;-73
2023/12/11 04:48:43;;;;;;;28.98;4.95;;;;;;;9.77;100.00;99615.03;6083426;19;20023;-71
2023/12/11 04:50:48;;;;;;;26.95;5.65;;;;;;;9.77;100.00;99601.91;6087173;19;20087;-71
2023/12/11 04:52:53;;;;;;;25.13;5.63;;;;;;;9.77;100.00;99591.41;6086235;19;20014;-72
2023/12/11 04:55:01;;;;;;;28.98;5.40;;;;;;;9.77;100.00;99614.16;6087113;19;20011;-71
2023/12/11 04:57:10;;;;;;;27.27;5.00;;;;;;;9.78;100.00;99587.00;6088851;19;20011;-72
2023/12/11 04:59:15;;;;;;;22.80;4.82;;;;;;;9.74;100.00;99586.34;6089104;19;20014;-72
2023/12/11 05:01:20;;;;;;;20.10;4.82;;;;;;;9.87;100.00;99599.59;6087503;19;20017;-72
2023/12/11 05:03:25;;;;;;;21.52;4.43;;;;;;;9.77;100.00;99609.78;6089181;19;20015;-73
2023/12/11 05:05:30;;;;;;;24.73;4.72;;;;;;;9.75;100.00;99605.56;6084824;19;20006;-72
2023/12/11 05:07:36;;;;;;;29.75;4.95;;;;;;;9.76;100.00;99609.88;6086992;19;20010;-72
2023/12/11 05:09:41;;;;;;;22.25;4.15;;;;;;;9.77;100.00;99598.41;6087636;19;20019;-75
2023/12/11 05:11:47;;;;;;;18.33;3.95;;;;;;;9.78;100.00;99592.25;6087694;19;20017;-74
2023/12/11 05:13:54;;;;;;;19.38;4.38;;;;;;;9.72;100.00;99600.50;6087121;19;20010;-75
2023/12/11 05:15:57;;;;;;;11.82;3.50;;;;;;;9.62;100.00;99593.13;6088038;19;20014;-74
2023/12/11 05:18:03;;;;;;;15.27;4.35;;;;;;;9.64;100.00;99593.06;6089093;19;20429;-72
2023/12/11 05:20:10;;;;;;;19.67;3.85;;;;;;;9.59;100.00;99588.06;6087743;19;20331;-70
2023/12/11 05:22:19;;;;;;;25.38;4.10;;;;;;;9.59;100.00;99589.84;6086706;19;20086;-74
2023/12/11 05:24:27;;;;;;;18.60;3.67;;;;;;;9.59;100.00;99590.69;6086839;19;20010;-73
2023/12/11 05:26:32;;;;;;;26.52;3.92;;;;;;;9.67;100.00;99598.13;6088372;19;20098;-72
2023/12/11 05:28:37;;;;;;;14.10;4.80;;;;;;;9.64;100.00;99588.66;6087495;19;20010;-73
2023/12/11 05:30:45;;;;;;;25.20;4.70;;;;;;;9.66;100.00;99594.66;6088412;19;20010;-74
2023/12/11 05:32:50;;;;;;;9.68;3.42;;;;;;;9.64;100.00;99599.13;6088438;19;20038;-73
2023/12/11 05:34:55;;;;;;;16.73;3.10;;;;;;;9.63;100.00;99588.72;6089577;19;20054;-73
2023/12/11 05:37:00;;;;;;;17.92;3.67;;;;;;;9.55;100.00;99594.41;6092003;19;20042;-74
2023/12/11 05:39:06;;;;;;;15.65;3.50;;;;;;;9.52;100.00;99591.09;6092957;19;20018;-73
2023/12/11 05:41:12;;;;;;;18.25;4.25;;;;;;;9.43;100.00;99579.38;6094402;19;20042;-73
2023/12/11 05:43:17;;;;;;;18.70;3.92;;;;;;;9.42;100.00;99594.22;6087540;19;20018;-74
2023/12/11 05:45:22;;;;;;;18.67;4.00;;;;;;;9.43;100.00;99588.06;6093982;19;20355;-74
2023/12/11 05:47:30;;;;;;;11.52;2.95;;;;;;;9.39;100.00;99577.84;6091891;19;20011;-72
2023/12/11 05:49:35;;;;;;;24.70;4.18;;;;;;;9.38;100.00;99591.88;6091838;19;20034;-73
2023/12/11 05:51:40;;;;;;;16.85;3.67;;;;;;;9.41;100.00;99583.84;6088337;19;20018;-73
2023/12/11 05:53:45;;;;;;;27.63;3.47;;;;;;;9.39;100.00;99585.69;6089197;19;20046;-72
2023/12/11 05:55:51;;;;;;;14.60;3.35;;;;;;;9.47;100.00;99582.66;6089164;19;20039;-72
2023/12/11 05:57:56;;;;;;;11.52;2.30;;;;;;;9.48;100.00;99579.97;6089430;19;20018;-72
2023/12/11 06:00:00;;;;;;;13.00;4.38;;;;;;;9.45;100.00;99580.09;6086171;19;20478;-73
2023/12/11 06:02:06;;;;;;;12.25;2.63;;;;;;;9.51;100.00;99594.69;6088210;19;20574;-73
2023/12/11 06:04:16;;;;;;;27.13;4.72;;;;;;;9.53;100.00;99596.28;6085657;19;20006;-71
2023/12/11 06:06:19;;;;;;;11.30;2.83;;;;;;;9.51;100.00;99592.06;6087694;19;20013;-73
2023/12/11 06:08:24;;;;;;;19.38;3.47;;;;;;;9.54;100.00;99579.59;6086076;19;20428;-72
2023/12/11 06:10:29;;;;;;;14.15;3.08;;;;;;;9.57;100.00;99589.06;6085895;19;20014;-74
2023/12/11 06:12:34;;;;;;;20.48;3.55;;;;;;;9.60;100.00;99581.03;6086381;19;20538;-74
2023/12/11 06:14:42;;;;;;;21.40;3.30;;;;;;;9.58;100.00;99580.25;6084854;19;20372;-73
2023/12/11 06:16:52;;;;;;;14.05;4.00;;;;;;;9.55;100.00;99615.38;6086770;19;20400;-74
2023/12/11 06:18:56;;;;;;;12.07;2.60;;;;;;;9.53;100.00;99601.53;6086451;19;20023;-75
2023/12/11 06:21:04;;;;;;;23.27;3.65;;;;;;;9.47;100.00;99612.34;6086841;19;20050;-74
2023/12/11 06:23:09;;;;;;;16.90;3.33;;;;;;;9.43;100.00;99611.69;6085649;19;20027;-74
2023/12/11 06:25:14;;;;;;;16.55;3.65;;;;;;;9.40;100.00;99619.72;6085264;19;20313;-73
2023/12/11 06:27:19;;;;;;;18.13;3.40;;;;;;;9.35;100.00;99626.16;6084727;19;20542;-73
2023/12/11 06:29:25;;;;;;;18.77;3.67;;;;;;;9.29;100.00;99619.44;6086681;19;20014;-73
2023/12/11 06:31:28;;;;;;;12.57;3.17;;;;;;;9.28;100.00;99638.72;6085705;19;20018;-74
2023/12/11 06:33:33;;;;;;;23.63;3.80;;;;;;;9.30;100.00;99642.13;6085735;19;20006;-74
2023/12/11 06:35:38;;;;;;;19.40;3.92;;;;;;;9.27;100.00;99647.53;6082558;19;20042;-73
2023/12/11 06:37:46;;;;;;;14.93;3.58;;;;;;;9.22;100.00;99642.53;6085955;19;20628;-74
2023/12/11 06:39:51;;;;;;;17.27;3.22;;;;;;;9.19;100.00;99662.84;6086960;19;20006;-75
2023/12/11 06:41:56;;;;;;;9.15;2.45;;;;;;;9.12;100.00;99664.06;6082847;19;20379;-74
2023/12/11 06:44:03;;;;;;;24.83;4.43;;;;;;;9.06;100.00;99675.75;6085827;19;20077;-75
2023/12/11 06:46:05;;;;;;;18.88;3.90;;;;;;;8.97;100.00;99692.75;6083580;19;20039;-72
2023/12/11 06:48:10;;;;;;;13.43;3.83;;;;;;;8.94;100.00;99694.72;6084345;19;20039;-73
2023/12/11 06:50:19;;;;;;;17.25;4.00;;;;;;;8.85;100.00;99693.44;6083465;19;20010;-74
2023/12/11 06:52:25;;;;;;;16.88;3.30;;;;;;;8.84;100.00;99691.72;6084620;19;20524;-74
2023/12/11 06:54:32;;;;;;;21.60;4.40;;;;;;;8.89;100.00;99683.63;6084515;19;20363;-74
2023/12/11 06:56:37;;;;;;;10.95;2.63;;;;;;;8.92;100.00;99688.69;6084634;19;20144;-73
2023/12/11 06:58:42;;;;;;;10.40;3.33;;;;;;;8.94;100.00;99697.34;6087996;19;20113;-73
2023/12/11 07:00:47;;;;;;;13.93;3.60;;;;;;;8.93;100.00;99698.28;6084249;19;20002;-74
2023/12/11 07:02:52;;;;;;;17.48;3.45;;;;;;;8.94;100.00;99677.22;6083441;19;19999;-74
2023/12/11 07:04:57;;;;;;;16.08;3.75;;;;;;;8.96;100.00;99696.31;6079399;19;20014;-75
2023/12/11 07:07:03;;;;;;;12.70;2.47;;;;;;;8.98;100.00;99699.72;6083732;19;20051;-74
2023/12/11 07:09:10;;;;;;;10.93;3.70;;;;;;;9.01;100.00;99709.19;6083767;19;20007;-75
2023/12/11 07:11:17;;;;;;;18.98;3.28;;;;;;;9.00;100.00;99713.59;6082907;19;20018;-75
2023/12/11 07:13:20;;;;;;;18.27;3.45;;;;;;;9.04;100.00;99723.91;6079881;19;20010;-74
2023/12/11 07:15:26;;;;;;;19.00;3.45;;;;;;;9.05;100.00;99734.31;6080953;19;20530;-74
2023/12/11 07:17:31;;;;;;;14.18;2.72;;;;;;;8.99;100.00;99721.53;6082106;19;20006;-76
2023/12/11 07:19:40;;;;;;;11.55;2.88;;;;;;;9.08;100.00;99731.50;6083260;19;19998;-74
2023/12/11 07:21:45;;;;;;;8.55;2.72;;;;;;;9.22;100.00;99730.81;6083491;19;20015;-73
2023/12/11 07:23:50;;;;;;;6.53;2.33;;;;;;;9.20;100.00;99746.59;6081014;19;20030;-74
2023/12/11 07:25:55;;;;;;;12.90;2.80;;;;;;;9.17;100.00;99752.03;6079923;19;20011;-75
2023/12/11 07:28:00;;;;;;;13.38;3.35;;;;;;;9.15;100.00;99764.34;6084259;19;21439;-73
2023/12/11 07:30:06;;;;;;;11.45;3.20;;;;;;;9.18;100.00;99764.19;6083964;19;20006;-74
2023/12/11 07:32:12;;;;;;;12.93;2.65;;;;;;;9.27;100.00;99756.75;6084197;19;20122;-72
2023/12/11 07:34:21;;;;;;;8.02;2.22;;;;;;;9.27;100.00;99762.88;6086279;19;20009;-72
2023/12/11 07:36:27;;;;;;;13.45;3.25;;;;;;;9.21;100.00;99778.91;6082654;19;20019;-73
2023/12/11 07:38:37;;;;;;;12.85;2.67;;;;;;;9.17;100.00;99785.25;6082942;19;20462;-73
2023/12/11 07:40:45;;;;;;;12.02;2.22;;;;;;;9.26;100.00;99786.53;5988757;19;2004865;-73
2023/12/11 07:42:50;;;;;;;8.75;2.78;;;;;;;9.25;100.00;99780.44;6082931;19;20010;-75
2023/12/11 07:44:59;;;;;;;5.30;2.38;;;;;;;9.29;100.00;99799.47;6084501;19;20618;-73
2023/12/11 07:47:03;;;;;;;12.50;2.55;;;;;;;9.26;100.00;99797.88;6084106;19;20428;-73
2023/12/11 07:49:09;;;;;;;8.35;3.10;;;;;;;9.23;100.00;99803.28;6084614;19;20577;-73
2023/12/11 07:51:23;;;;;;;8.25;2.28;;;;;;;9.23;100.00;99811.13;6083509;19;20030;-76
2023/12/11 07:53:28;;;;;;;5.75;1.98;;;;;;;9.23;100.00;99808.50;6081021;19;20014;-72
2023/12/11 07:55:33;;;;;;;8.68;3.25;;;;;;;9.19;100.00;99820.09;6082794;19;20022;-73
2023/12/11 07:57:39;;;;;;;15.88;3.60;;;;;;;9.15;100.00;99827.25;6081709;19;20030;-73
2023/12/11 07:59:45;;;;;;;8.98;3.00;;;;;;;9.14;100.00;99833.44;6080290;19;20016;-72
2023/12/11 08:01:52;;;;;;;11.85;2.70;;;;;;;9.10;100.00;99844.13;6084987;19;20049;-73
2023/12/11 08:03:58;;;;;;;22.42;5.10;;;;;;;9.05;100.00;99849.59;6083203;19;20011;-73
2023/12/11 08:06:03;;;;;;;17.30;3.55;;;;;;;8.96;100.00;99858.78;6084567;19;20409;-74
2023/12/11 08:08:09;;;;;;;16.95;3.63;;;;;;;8.93;100.00;99868.56;6084606;19;20014;-74
2023/12/11 08:10:16;;;;;;;15.98;3.38;;;;;;;8.91;100.00;99865.19;6083417;19;20479;-74
2023/12/11 08:12:21;;;;;;;18.08;3.45;;;;;;;8.89;100.00;99887.97;6082948;19;20015;-74
2023/12/11 08:14:26;;;;;;;14.88;3.10;;;;;;;8.76;100.00;99899.03;6081804;19;20010;-72
2023/12/11 08:16:31;;;;;;;13.50;4.50;;;;;;;8.72;100.00;99905.38;6082776;19;20010;-72
2023/12/11 08:18:39;;;;;;;14.45;3.47;;;;;;;8.65;100.00;99917.03;6083142;19;20019;-72
2023/12/11 08:20:44;;;;;;;15.68;3.47;;;;;;;8.57;100.00;99914.78;6082963;19;20426;-74
2023/12/11 08:22:47;;;;;;;22.30;5.20;;;;;;;8.57;100.00;99927.88;6081416;19;20011;-73
2023/12/11 08:24:53;;;;;;;12.38;3.72;;;;;;;8.54;100.00;99928.03;6086292;19;20475;-73
2023/12/11 08:26:56;;;;;;;12.32;3.63;;;;;;;8.53;100.00;99933.31;6085093;19;20317;-73
2023/12/11 08:29:01;;;;;;;21.58;4.25;;;;;;;8.56;100.00;99936.66;6084015;19;20649;-73
2023/12/11 08:31:07;;;;;;;14.27;4.45;;;;;;;8.59;100.00;99934.84;6083626;19;20526;-72
2023/12/11 08:33:12;;;;;;;12.52;3.22;;;;;;;8.61;100.00;99946.94;6085353;19;20019;-73
2023/12/11 08:35:20;;;;;;;11.35;3.38;;;;;;;8.57;100.00;99956.69;6084126;19;20043;-76
2023/12/11 08:37:26;;;;;;;14.50;4.32;;;;;;;8.57;100.00;99966.31;6086413;19;20580;-74
2023/12/11 08:39:28;;;;;;;11.85;4.20;;;;;;;8.57;100.00;99971.56;6085980;19;20015;-74
2023/12/11 08:41:33;;;;;;;11.30;2.85;;;;;;;8.52;100.00;99978.78;6084203;19;20011;-74
2023/12/11 08:43:38;;;;;;;9.45;3.35;;;;;;;8.49;100.00;99978.91;6084495;19;20014;-75
2023/12/11 08:45:44;;;;;;;10.50;2.58;;;;;;;8.51;100.00;99984.94;6086936;19;20007;-74
2023/12/11 08:47:49;;;;;;;12.10;3.08;;;;;;;8.47;100.00;99991.22;6085898;19;20007;-73
2023/12/11 08:49:54;;;;;;;7.70;3.42;;;;;;;8.53;100.00;99990.94;6081230;19;20003;-72
2023/12/11 08:52:02;;;;;;;10.40;3.97;;;;;;;8.52;100.00;99994.47;6081887;19;20610;-76
2023/12/11 08:54:07;;;;;;;10.80;3.78;;;;;;;8.57;100.00;100000.34;6080349;19;20006;-75
2023/12/11 08:56:10;;;;;;;11.25;3.60;;;;;;;8.55;100.00;100000.41;6082102;19;20015;-74
2023/12/11 08:58:15;;;;;;;8.63;3.90;;;;;;;8.58;100.00;100002.03;6081985;19;20475;-75
2023/12/11 09:00:21;;;;;;;11.93;3.80;;;;;;;8.60;100.00;100007.22;6082999;19;20007;-74
2023/12/11 09:02:26;;;;;;;9.20;3.80;;;;;;;8.61;100.00;100022.00;6081005;19;20002;-74
2023/12/11 09:04:31;;;;;;;10.75;4.63;;;;;;;8.66;100.00;100018.28;6080594;19;20014;-73
2023/12/11 09:06:36;;;;;;;12.48;3.33;;;;;;;8.69;100.00;100031.22;6082260;19;20043;-72
2023/12/11 09:08:44;;;;;;;8.15;3.45;;;;;;;8.66;100.00;100039.25;6080071;19;20502;-72
2023/12/11 09:10:49;;;;;;;10.15;3.85;;;;;;;8.68;100.00;100050.47;6081356;19;20343;-71
2023/12/11 09:12:54;;;;;;;11.88;3.70;;;;;;;8.70;100.00;100050.41;6081290;19;20011;-74
2023/12/11 09:14:59;;;;;;;10.30;3.83;;;;;;;8.70;100.00;100048.63;6080879;19;20023;-74
2023/12/11 09:17:05;;;;;;;15.60;4.25;;;;;;;8.73;100.00;100061.59;6082866;19;20464;-74
2023/12/11 09:19:10;;;;;;;12.52;4.32;;;;;;;8.72;100.00;100064.28;6082183;19;20164;-71
2023/12/11 09:21:13;;;;;;;13.40;3.50;;;;;;;8.73;100.00;100068.59;6083121;19;20022;-71
2023/12/11 09:23:18;;;;;;;9.15;3.78;;;;;;;8.77;100.00;100068.41;6080416;19;20015;-74
2023/12/11 09:25:25;;;;;;;17.63;3.42;;;;;;;8.81;100.00;100074.34;6078713;19;20011;-72
2023/12/11 09:27:30;;;;;;;11.30;2.83;;;;;;;8.79;100.00;100068.31;6083827;19;20040;-71
2023/12/11 09:29:36;;;;;;;7.25;3.10;;;;;;;8.81;100.00;100087.44;6086675;19;20613;-71
2023/12/11 09:31:43;;;;;;;7.40;2.45;;;;;;;8.84;100.00;100083.84;6087132;19;20361;-71
2023/12/11 09:33:48;;;;;;;8.20;4.40;;;;;;;8.84;100.00;100087.28;6086790;19;20042;-74
2023/12/11 09:35:53;;;;;;;5.57;2.22;;;;;;;8.83;100.00;100090.84;6087399;19;20443;-75
2023/12/11 09:38:03;;;;;;;7.57;2.42;;;;;;;8.85;100.00;100101.28;6087436;19;20111;-71
2023/12/11 09:40:10;;;;;;;6.10;2.63;;;;;;;8.85;100.00;100107.34;6087540;19;20423;-72
2023/12/11 09:42:19;;;;;;;6.45;2.22;;;;;;;8.89;100.00;100108.06;6088891;19;20007;-73
2023/12/11 09:44:25;;;;;;;7.25;2.50;;;;;;;8.90;100.00;100121.09;6086938;19;20082;-74